< Typhoon 201101 2011 Season Typhoon 201103 >
Typhoon 201102 (SONGDA)
General InformationTrack Information on Google MapsDetailed Wind InformationAccess Analytics MapList of All Images || NewsDisaster Info.WeblogTrackbackTyphoon FrontTwiphoonTyphoon Now!Typhoon ImaginationResourceGoogle EarthGE AnimationAtom FeedGeoJSON
Detalied Best Track (Time Zone = UTC)
Year Month Day Hour Lat. Long. Pressure (hPa) Wind (kt) Class Image Chart
2011 5 19 18 8.3 141.6 1006 0 2 Image Chart
2011 5 20 00 8.3 141.3 1006 0 2 Image Chart
2011 5 20 06 8.2 140.9 1004 0 2 Image Chart
2011 5 20 12 8.3 140.2 1004 0 2 Image Chart
2011 5 20 18 8.4 139.5 1004 0 2 Image Chart
2011 5 21 00 8.7 138.6 1004 0 2 Image Chart
2011 5 21 06 8.8 138.3 1002 0 2 Image Chart
2011 5 21 12 9.0 137.9 1000 35 3 Image Chart
2011 5 21 18 9.2 137.5 998 35 3 Image Chart
2011 5 22 00 9.5 137.1 994 40 3 Image Chart
2011 5 22 06 9.7 136.6 990 45 3 Image Chart
2011 5 22 12 10.2 135.8 985 50 4 Image Chart
2011 5 22 18 10.4 135.0 985 50 4 Image Chart
2011 5 23 00 11.0 133.9 985 50 4 Image Chart
2011 5 23 06 11.2 133.1 985 50 4 Image Chart
2011 5 23 12 11.4 132.5 985 55 4 Image Chart
2011 5 23 18 11.6 131.7 980 55 4 Image Chart
2011 5 24 00 11.9 131.1 980 55 4 Image Chart
2011 5 24 06 12.3 130.1 975 60 4 Image Chart
2011 5 24 12 12.4 129.3 975 60 4 Image Chart
2011 5 24 18 12.1 128.5 970 65 5 Image Chart
2011 5 25 00 12.3 128.2 965 70 5 Image Chart
2011 5 25 06 12.6 127.8 955 75 5 Image Chart
2011 5 25 12 13.1 127.5 945 85 5 Image Chart
2011 5 25 18 13.8 127.2 935 95 5 Image Chart
2011 5 26 00 14.7 126.5 930 100 5 Image Chart
2011 5 26 06 15.6 125.8 920 105 5 Image Chart
2011 5 26 12 16.2 125.1 920 105 5 Image Chart
2011 5 26 18 17.2 124.5 920 105 5 Image Chart
2011 5 27 00 18.1 123.9 920 105 5 Image Chart
2011 5 27 06 19.3 123.4 930 100 5 Image Chart
2011 5 27 12 20.4 123.1 930 95 5 Image Chart
2011 5 27 15 20.8 123.1 935 95 5 Image Chart
2011 5 27 18 21.5 123.3 940 90 5 Image Chart
2011 5 27 21 22.3 123.5 940 90 5 Image Chart
2011 5 28 00 22.9 123.8 940 90 5 Image Chart
2011 5 28 03 23.9 124.4 940 90 5 Image Chart
2011 5 28 06 24.8 125.0 940 90 5 Image Chart
2011 5 28 09 25.6 125.7 945 80 5 Image Chart
2011 5 28 12 26.3 126.6 950 80 5 Image Chart
2011 5 28 15 27.4 128.0 960 75 5 Image Chart
2011 5 28 18 28.6 129.2 965 70 5 Image Chart
2011 5 28 21 29.4 130.2 970 65 5 Image Chart
2011 5 29 00 30.7 131.6 975 60 4 Image Chart
2011 5 29 03 31.8 133.1 980 55 4 Image Chart
2011 5 29 06 33.0 134.0 982 0 6 Image Chart
2011 5 29 12 34.2 136.6 988 0 6 Image Chart
2011 5 29 18 34.5 137.4 988 0 6 Image Chart
2011 5 30 00 34.6 139.6 990 0 6 Image Chart
2011 5 30 06 35.8 142.8 990 0 6 Image Chart
2011 5 30 12 36.5 145.2 990 0 6 Image Chart
2011 5 30 18 36.4 148.1 990 0 6 Image Chart
2011 5 31 00 36.3 150.9 988 0 6 Image Chart
2011 5 31 06 36.7 154.6 988 0 6 Image Chart
2011 5 31 12 37.3 156.8 988 0 6 Image Chart
2011 5 31 18 37.7 158.6 988 0 6 Image Chart
2011 6 1 00 37.8 160.5 988 0 6 Image Chart
2011 6 1 06 38.8 165.4 988 0 6 Image Chart
2011 6 1 12 39.4 169.7 988 0 6 Image Chart
2011 6 1 18 40.5 173.6 988 0 6 Image Chart
2011 6 2 00 42.0 178.2 990 0 6 Image Chart
Japan Meteorological Agency Best Track Data | Correction Date : 2011-06-24
< Typhoon 201101 2011 Season Typhoon 201103 >

Help